Terminal Aerodrome Forecast
Issued by NWS Wilmington, NC

Current Version | Previous Version | Graphics & Text | Print | Product List | Glossary Off
Versions: 1 2 3 4 5 6 7 8 9 10 11 12 13 14 15 16 17 18 19 20 21 22

000
FTUS42 KILM 070521
TAFFLO
TAF
KFLO 070521Z 0706/0806 26005KT P6SM BKN015
     FM070900 30007KT 4SM BR BKN008
      TEMPO 0709/0713 OVC004
     FM071300 31005KT 5SM BR SCT010
     FM071400 33007KT P6SM SCT020
     FM072100 VRB03KT P6SM SKC=

USA.gov is the U.S. government's official web portal to all federal, state and local government web resources and services.